Flugplatz Riesa-Göhlis

Für EDAU sind keine METAR/TAF Berichte vorhanden.
Es werden die Flugwettermeldungen vom Flugplatz Dresden in 33 km Entfernung angezeigt.

Bericht für EDDC

vom 20.10. um 04:20 UTC

Wind 11 kt aus 190°

Sichtweite 10 km oder mehr

gute Sicht, keine Wolken < 5000 ft, keine CB, keine Wettererscheinungen (CAVOK)

Temperatur 13.0°C

Taupunkt 9.0°C

Luftfeuchtigkeit 77%

Luftdruck 1014 hPa

keine wesentliche Wetteränderung innerhalb den nächsten 2 Stunden zu erwarten

EDDC 200420Z 19011KT CAVOK 13/09 Q1014 NOSIG

Prognose für EDDC

vom 19.10. um 23:00 UTC

Zwischen 00:00 UTC und 10:00 UTC

Wind 10 kt aus 190°

Sichtweite 10 km oder mehr

keine signifikanten Wettererscheinungen

keine Wolken


Zwischen 10:00 und 13:00 UTC übergehend zu

Wind 15 kt aus 210° in Böen 25 kt

Sichtweite 10 km oder mehr

keine signifikanten Wettererscheinungen

keine Wolken

TAF EDDC 192300Z 2000/2024 19010KT CAVOK BECMG 2010/2013 21015G25KT
Impressum